Terminal Aerodrome Forecast
Issued by NWS

Home | Current Version | Previous Version | Text Only | Print | Product List | Glossary On
Versions: 1 2 3 4 5 6 7 8 9 10 11 12 13 14 15 16 17 18 19 20 21 22 23 24 25 26 27 28 29 30
000
FTUS45 KGJT 280521
TAFMTJ
TAF
KMTJ 280521Z 2806/2906 15006KT P6SM BKN200
     FM281600 28006KT P6SM SCT110 BKN200
     FM281900 34006KT P6SM BKN100
     FM290000 19005KT P6SM VCSH BKN070 OVC100=

USA.gov is the U.S. government's official web portal to all federal, state and local government web resources and services.